Accueil
METAR-TAF:

METAR-TAF

Aéroports :

Plate-forme pétrolière

Goeree Le, Pays-Bas

latitude: 51-55-33N, longitude: 3-40-12E, altitude: 19 m

Observation

Le bulletin a été fait il y a 17 minutes, à 17:55 UTC
Vent 17 kt de ouest/sud-ouest
Température 19°C
Humidité 78%
Pression 1017 hPa
Visibilité 10 km ou plus

METAR: EHSC 151755Z AUTO 24017KT 9999 ///////// 19/15 Q1017 W21/H9

Heure: 20:12 (18:12 UTC)


TAF: absent

Observations et prévisions météorologiques de plus de 4000 aéroports (messages METAR et TAF).

Les stations disponibles sont représentées par des disques jaunes et rouges sur la carte.

Passer la souris dessus pour voir le nom de la station.

Cliquer dessus pour voir les observations et prévisions météorologiques.

Pour changer de carte: cliquez sur les boutons verts avec une croix noire pour zoomer, sur le bouton vert avec un tiret pour effectuer un zoom arrière, ou sur les flèches vertes pour les cartes adjacentes.


METAR-TAF: